Country
Station

 

Weather  for  Istanbul/Ataturk  -  Turkey    Turkey

  
19 °C (66 °F)
    
 
 

Current METAR for Istanbul/Ataturk is :

LTBA 020950Z 18007KT 9999 SCT030 BKN070 19/12 Q1009 BECMG 30010KT

 

This is a report for Istanbul/Ataturk - Turkey.
 
The report was made 35 minutes ago, at 09:50 UTC .
The wind was blowing at a speed of 3.6 meters per second (8.1 miles per hour) from south (180°).
 
The temperature was 19 °C (66 °F), with a dew-point at 12 °C (54 °F).
The atmospheric pressure was 1009 hPa (29.80 inHg).
The relative humidity was 63.8%.
 
There were scattered clouds at a height of 914 meters (3000 feet) and broken clouds at a height of 2134 meters (7000 feet).
 
The overall visibility was greater than 10 kilometers (6.2 miles).
 

 
 
 
 

Country :   A   B   C   D   E   F   G   H   I   J   K   L   M   N   O   P   Q   R   S   T   U   V   W   Y   Z

 

Site Info  |  Disclaimer  |  Credits  |  Privacy
Contact us  |  Add to favorites
© 2013-2020 METARs - All rights reserved